Time;durP1;ratioP1;P1;durP2;ratioP2;P2;SDS_P1;SDS_P2;PMS_P1;PMS_P2;Temp;Humidity;BMP_temperature;BMP_pressure;BME280_temperature;BME280_humidity;BME280_pressure;Samples;Min_cycle;Max_cycle;Signal;HPM_P1;HPM_P2
2021/12/22 00:00:01;;;;;;;25.23;13.15;;;;;;;-3.60;77.58;101372.81;3551471;78;20987;-76
2021/12/22 00:04:54;;;;;;;24.85;13.08;;;;;;;-3.64;77.58;101375.87;3566965;78;21472;-75
2021/12/22 00:09:45;;;;;;;20.62;12.15;;;;;;;-3.65;77.74;101384.25;3463233;78;21697;-75
2021/12/22 00:14:36;;;;;;;23.47;13.78;;;;;;;-3.66;77.86;101383.75;3513146;78;20962;-76
2021/12/22 00:19:27;;;;;;;26.48;14.58;;;;;;;-3.65;77.99;101391.87;3510417;78;21524;-75
2021/12/22 00:24:18;;;;;;;23.70;13.62;;;;;;;-3.61;78.05;101392.66;3522377;79;20986;-75
2021/12/22 00:29:10;;;;;;;27.90;15.35;;;;;;;-3.58;78.09;101390.75;3561430;78;21109;-76
2021/12/22 00:34:01;;;;;;;25.68;14.28;;;;;;;-3.52;78.22;101399.78;3571840;78;21141;-75
2021/12/22 00:38:53;;;;;;;22.98;13.95;;;;;;;-3.46;78.22;101396.47;3529416;78;29082;-75
2021/12/22 00:43:45;;;;;;;24.90;14.13;;;;;;;-3.44;78.11;101395.34;3478563;78;21532;-75
2021/12/22 00:48:35;;;;;;;24.25;13.13;;;;;;;-3.43;78.11;101405.12;3506772;78;20982;-75
2021/12/22 00:53:28;;;;;;;24.05;13.00;;;;;;;-3.46;78.19;101399.02;3588295;78;26562;-76
2021/12/22 00:58:20;;;;;;;21.87;13.15;;;;;;;-3.46;78.20;101400.28;3474481;79;21457;-74
2021/12/22 01:03:11;;;;;;;22.70;12.65;;;;;;;-3.46;78.29;101409.19;3512365;78;20995;-75
2021/12/22 01:08:02;;;;;;;25.00;13.98;;;;;;;-3.44;78.36;101414.41;3424833;79;20970;-75
2021/12/22 01:12:56;;;;;;;21.55;12.93;;;;;;;-3.43;78.29;101410.20;3471085;79;21046;-75
2021/12/22 01:17:56;;;;;;;18.40;12.07;;;;;;;-3.44;78.23;101411.86;3515144;78;20924;-74
2021/12/22 01:27:39;;;;;;;17.62;11.78;;;;;;;-3.42;78.32;101407.80;3490450;79;21650;-75
2021/12/22 01:32:29;;;;;;;23.03;13.53;;;;;;;-3.42;78.27;101412.00;3511328;79;20908;-75
2021/12/22 01:37:20;;;;;;;20.05;11.40;;;;;;;-3.42;78.33;101409.45;3471672;79;24743;-75
2021/12/22 01:42:11;;;;;;;18.82;12.20;;;;;;;-3.42;78.32;101398.89;3447462;78;20982;-75
2021/12/22 01:52:13;;;;;;;18.62;13.10;;;;;;;-3.61;78.00;101418.08;3547913;78;20936;-75
2021/12/22 01:57:10;;;;;;;21.23;14.40;;;;;;;-3.75;78.16;101426.19;3517130;79;20950;-75
2021/12/22 02:02:00;;;;;;;21.75;12.43;;;;;;;-3.87;78.21;101442.14;3512918;78;20920;-75
2021/12/22 02:06:51;;;;;;;25.23;15.35;;;;;;;-3.90;78.36;101453.69;3499140;78;20959;-75
2021/12/22 02:11:42;;;;;;;28.05;16.75;;;;;;;-3.84;78.54;101456.39;3480134;79;21576;-76
2021/12/22 02:16:38;;;;;;;26.55;15.53;;;;;;;-3.75;78.60;101441.44;3482815;79;28048;-76
2021/12/22 02:21:32;;;;;;;23.22;13.95;;;;;;;-3.67;78.62;101440.42;3526531;78;21038;-75
2021/12/22 02:26:32;;;;;;;25.20;15.03;;;;;;;-3.60;78.56;101444.38;3511048;79;20983;-75
2021/12/22 02:31:18;;;;;;;24.52;15.55;;;;;;;-3.58;78.51;101438.66;3469053;79;20955;-75
2021/12/22 02:41:14;;;;;;;23.18;14.03;;;;;;;-3.54;78.49;101441.08;3495683;78;21010;-75
2021/12/22 02:46:05;;;;;;;28.32;16.25;;;;;;;-3.55;78.48;101436.38;3540427;79;21529;-75
2021/12/22 02:51:00;;;;;;;23.30;13.53;;;;;;;-3.54;78.58;101438.18;3537176;79;24701;-75
2021/12/22 02:55:59;;;;;;;25.88;14.85;;;;;;;-3.52;78.49;101435.38;3438319;78;21195;-75
2021/12/22 03:01:05;;;;;;;23.35;13.83;;;;;;;-3.50;78.46;101433.85;3521900;78;21516;-75
2021/12/22 03:05:43;;;;;;;22.87;14.00;;;;;;;-3.48;78.49;101428.52;3457483;79;21273;-75
2021/12/22 03:10:34;;;;;;;29.23;17.52;;;;;;;-3.48;78.52;101441.61;3470219;79;20940;-75
2021/12/22 03:15:25;;;;;;;25.40;16.23;;;;;;;-3.46;78.50;101437.16;3488921;79;20940;-75
2021/12/22 03:20:17;;;;;;;28.35;15.25;;;;;;;-3.45;78.48;101441.49;3505923;79;26543;-75
2021/12/22 03:25:14;;;;;;;27.25;16.73;;;;;;;-3.43;78.45;101440.36;3528333;79;21066;-74
2021/12/22 03:30:03;;;;;;;28.25;17.05;;;;;;;-3.40;78.47;101443.52;3473728;79;20929;-75
2021/12/22 03:34:54;;;;;;;25.92;15.72;;;;;;;-3.39;78.44;101447.86;3487736;79;20933;-75
2021/12/22 03:39:45;;;;;;;25.60;15.20;;;;;;;-3.36;78.54;101452.83;3434952;78;20968;-75
2021/12/22 03:44:36;;;;;;;23.87;15.35;;;;;;;-3.33;78.50;101450.91;3507314;79;21098;-75
2021/12/22 03:49:28;;;;;;;21.00;14.03;;;;;;;-3.31;78.46;101448.11;3472292;79;21315;-74
2021/12/22 03:54:20;;;;;;;21.33;14.28;;;;;;;-3.31;78.38;101462.09;3464778;79;21493;-75
2021/12/22 03:59:11;;;;;;;20.50;13.08;;;;;;;-3.29;78.33;101472.02;3475336;79;20979;-75
2021/12/22 04:04:11;;;;;;;23.12;13.55;;;;;;;-3.28;78.29;101477.63;3518361;78;20956;-75
2021/12/22 04:08:57;;;;;;;20.10;14.25;;;;;;;-3.24;78.46;101477.11;3524150;79;20865;-75
2021/12/22 04:13:49;;;;;;;21.90;12.13;;;;;;;-3.23;78.34;101480.18;3494457;79;26998;-74
2021/12/22 04:18:39;;;;;;;23.25;14.35;;;;;;;-3.19;78.32;101473.70;3493165;79;20940;-74
2021/12/22 04:23:30;;;;;;;22.07;12.53;;;;;;;-3.23;78.20;101472.55;3499518;79;21647;-76
2021/12/22 04:28:21;;;;;;;23.12;13.83;;;;;;;-3.25;78.18;101471.53;3479733;79;20916;-76
2021/12/22 04:33:14;;;;;;;19.02;13.28;;;;;;;-3.25;78.26;101482.98;3477631;79;20956;-75
2021/12/22 04:38:05;;;;;;;18.60;12.37;;;;;;;-3.21;78.39;101477.37;3472490;79;21003;-75
2021/12/22 04:42:56;;;;;;;20.85;13.93;;;;;;;-3.18;78.31;101480.19;3528777;79;28128;-75
2021/12/22 04:47:50;;;;;;;23.98;14.68;;;;;;;-3.16;78.31;101488.84;3497734;79;21480;-75
2021/12/22 04:52:51;;;;;;;17.48;13.13;;;;;;;-3.17;78.29;101479.41;3514297;79;21429;-75
2021/12/22 04:57:37;;;;;;;23.47;14.00;;;;;;;-3.15;78.28;101468.09;3502525;79;20943;-75
2021/12/22 05:02:28;;;;;;;19.90;13.08;;;;;;;-3.17;78.22;101481.95;3523687;78;21334;-75
2021/12/22 05:07:19;;;;;;;17.02;11.50;;;;;;;-3.17;78.23;101484.50;3482375;79;28765;-75
2021/12/22 05:12:10;;;;;;;18.12;11.97;;;;;;;-3.19;78.12;101488.57;3492008;79;20944;-74
2021/12/22 05:17:05;;;;;;;16.27;11.18;;;;;;;-3.20;78.13;101483.34;3510531;78;20975;-74
2021/12/22 05:21:55;;;;;;;17.05;10.88;;;;;;;-3.21;78.10;101495.19;3571606;78;20955;-74
2021/12/22 05:26:46;;;;;;;15.83;10.80;;;;;;;-3.25;77.93;101495.70;3549593;78;21528;-75
2021/12/22 05:31:38;;;;;;;14.33;10.03;;;;;;;-3.28;78.06;101492.49;3463837;79;20951;-74
2021/12/22 05:36:30;;;;;;;15.88;11.12;;;;;;;-3.23;78.07;101495.83;3485053;79;21054;-75
2021/12/22 05:41:22;;;;;;;19.10;11.83;;;;;;;-3.26;77.98;101499.87;3511156;79;21445;-75
2021/12/22 05:46:13;;;;;;;21.20;12.35;;;;;;;-3.27;78.05;101521.39;3557546;78;20947;-74
2021/12/22 05:51:04;;;;;;;19.52;13.58;;;;;;;-3.24;78.08;101525.44;3523876;79;21282;-75
2021/12/22 05:55:57;;;;;;;22.22;14.95;;;;;;;-3.22;78.09;101534.09;3496788;78;21458;-75
2021/12/22 06:00:50;;;;;;;22.25;12.58;;;;;;;-3.16;78.23;101537.17;3497051;79;20952;-74
2021/12/22 06:05:42;;;;;;;16.95;11.75;;;;;;;-3.11;78.24;101549.91;3482893;79;20948;-74
2021/12/22 06:10:34;;;;;;;17.75;11.55;;;;;;;-3.07;78.12;101546.84;3496512;79;21042;-75
2021/12/22 06:15:26;;;;;;;23.98;14.05;;;;;;;-3.07;77.98;101548.13;3459859;79;20941;-74
2021/12/22 06:20:17;;;;;;;21.35;13.95;;;;;;;-3.03;78.05;101558.56;3531946;79;20988;-74
2021/12/22 06:25:08;;;;;;;22.70;14.70;;;;;;;-3.02;78.15;101571.42;3538133;78;20889;-75
2021/12/22 06:29:59;;;;;;;23.65;14.70;;;;;;;-2.99;78.08;101579.30;3531987;79;20977;-76
2021/12/22 06:34:50;;;;;;;23.32;15.03;;;;;;;-2.98;78.06;101590.39;3445330;79;27226;-74
2021/12/22 06:39:41;;;;;;;26.75;17.70;;;;;;;-2.97;78.13;101595.61;3533737;79;20924;-76
2021/12/22 06:44:32;;;;;;;25.05;16.50;;;;;;;-2.94;78.18;101606.42;3434365;79;21072;-75
2021/12/22 06:49:24;;;;;;;26.48;16.95;;;;;;;-2.89;78.13;101608.98;3497189;78;20931;-75
2021/12/22 06:54:15;;;;;;;25.97;16.97;;;;;;;-2.87;78.16;101608.72;3537416;79;21423;-76
2021/12/22 06:59:06;;;;;;;26.80;17.02;;;;;;;-2.85;78.08;101604.66;3524877;79;27022;-74
2021/12/22 07:03:57;;;;;;;24.40;16.20;;;;;;;-2.85;77.93;101605.92;3539628;78;20967;-74
2021/12/22 07:08:48;;;;;;;28.67;16.87;;;;;;;-2.79;78.16;101606.81;3463399;78;21093;-72
2021/12/22 07:13:39;;;;;;;26.48;17.32;;;;;;;-2.76;78.01;101600.33;3457100;79;20916;-68
2021/12/22 07:18:32;;;;;;;25.70;15.75;;;;;;;-2.72;78.08;101598.58;3483325;79;21019;-68
2021/12/22 07:23:22;;;;;;;28.25;17.98;;;;;;;-2.69;78.05;101598.81;3408699;79;21741;-70
2021/12/22 07:28:14;;;;;;;26.67;16.37;;;;;;;-2.64;78.03;101603.42;3536227;78;24033;-71
2021/12/22 07:33:06;;;;;;;27.13;16.95;;;;;;;-2.63;77.95;101602.28;3477359;78;20978;-76
2021/12/22 07:38:24;;;;;;;27.25;17.62;;;;;;;-2.56;77.95;101615.12;3500007;78;21585;-74
2021/12/22 07:43:15;;;;;;;28.62;18.87;;;;;;;-2.52;78.06;101628.26;3560146;78;20951;-75
2021/12/22 07:48:06;;;;;;;28.73;18.35;;;;;;;-2.47;77.93;101637.93;3518120;78;20998;-76
2021/12/22 07:52:56;;;;;;;29.20;17.75;;;;;;;-2.43;77.79;101644.69;3528924;78;20912;-75
2021/12/22 07:57:47;;;;;;;30.72;18.67;;;;;;;-2.41;77.80;101631.70;3469028;78;20916;-74
2021/12/22 08:02:39;;;;;;;32.48;19.55;;;;;;;-2.35;77.77;101634.74;3514167;78;21022;-75
2021/12/22 08:07:30;;;;;;;29.57;20.82;;;;;;;-2.30;77.64;101634.75;3450926;78;21013;-74
2021/12/22 08:12:21;;;;;;;27.22;18.62;;;;;;;-2.23;77.51;101636.16;3514492;78;21492;-74
2021/12/22 08:17:13;;;;;;;31.25;17.90;;;;;;;-2.16;77.63;101636.30;3513656;78;21100;-75
2021/12/22 08:22:04;;;;;;;30.72;19.30;;;;;;;-2.04;77.59;101634.77;3516997;79;20971;-75
2021/12/22 08:26:55;;;;;;;25.77;16.95;;;;;;;-1.98;77.47;101636.52;3543159;78;20911;-74
2021/12/22 08:31:47;;;;;;;26.87;17.25;;;;;;;-1.92;77.36;101639.56;3539743;78;21559;-74
2021/12/22 08:41:49;;;;;;;24.95;16.60;;;;;;;-1.85;77.00;101638.41;3494290;78;20930;-74
2021/12/22 08:46:46;;;;;;;25.43;15.55;;;;;;;-1.87;76.83;101645.44;3509294;78;20944;-77
2021/12/22 08:51:37;;;;;;;24.70;14.23;;;;;;;-1.86;76.83;101651.03;3538927;78;20979;-75
2021/12/22 08:56:29;;;;;;;26.85;15.48;;;;;;;-1.81;76.83;101640.83;3522300;78;26027;-75
2021/12/22 09:01:22;;;;;;;26.42;16.25;;;;;;;-1.75;76.73;101638.80;3507549;78;21495;-76
2021/12/22 09:06:14;;;;;;;22.07;15.65;;;;;;;-1.69;76.55;101644.38;3514173;78;21906;-77
2021/12/22 09:11:05;;;;;;;23.18;15.25;;;;;;;-1.58;76.82;101642.30;3502294;79;21442;-74
2021/12/22 09:15:57;;;;;;;26.93;16.30;;;;;;;-1.54;76.08;101645.62;3533440;78;20939;-73
2021/12/22 09:20:48;;;;;;;26.15;16.73;;;;;;;-1.47;76.42;101641.00;3479917;78;20974;-72
2021/12/22 09:25:40;;;;;;;27.45;17.67;;;;;;;-1.40;76.11;101635.23;3526936;78;21421;-75
2021/12/22 09:30:35;;;;;;;28.10;18.67;;;;;;;-1.34;75.90;101660.36;3471991;78;22324;-77
2021/12/22 09:35:23;;;;;;;29.50;17.75;;;;;;;-1.39;76.29;101667.64;3514394;78;20940;-72
2021/12/22 09:40:14;;;;;;;23.70;16.52;;;;;;;-1.40;76.40;101672.22;3528989;78;22332;-71
2021/12/22 09:45:06;;;;;;;27.70;18.02;;;;;;;-1.38;76.04;101664.69;3478562;78;21043;-73
2021/12/22 09:50:09;;;;;;;30.02;16.32;;;;;;;-1.36;76.15;101672.08;3530037;78;20979;-76
2021/12/22 09:55:00;;;;;;;29.27;19.65;;;;;;;-1.21;76.11;101675.87;3489682;78;21638;-75
2021/12/22 09:59:55;;;;;;;27.37;17.05;;;;;;;-1.07;75.90;101678.61;3436718;78;20999;-73
2021/12/22 10:04:49;;;;;;;30.90;18.45;;;;;;;-0.95;75.72;101666.81;3511559;78;20956;-72
2021/12/22 10:09:46;;;;;;;24.20;16.55;;;;;;;-0.84;75.38;101660.91;3497991;78;21477;-73
2021/12/22 10:14:54;;;;;;;28.15;18.23;;;;;;;-0.72;74.95;101654.95;3530100;78;21418;-72
2021/12/22 10:19:50;;;;;;;26.68;18.27;;;;;;;-0.66;75.30;101656.69;3492851;78;21180;-73
2021/12/22 10:24:44;;;;;;;28.07;18.05;;;;;;;-0.68;74.81;101646.39;3457533;78;20958;-71
2021/12/22 10:29:37;;;;;;;28.30;18.02;;;;;;;-0.71;74.51;101641.03;3475103;78;20889;-73
2021/12/22 10:34:28;;;;;;;33.78;21.25;;;;;;;-0.69;74.35;101641.16;3444966;78;21019;-73
2021/12/22 10:39:29;;;;;;;35.45;22.60;;;;;;;-0.77;74.32;101639.27;3483457;78;21526;-74
2021/12/22 10:44:20;;;;;;;37.93;24.30;;;;;;;-0.97;74.72;101653.05;3490472;79;21437;-73
2021/12/22 10:49:20;;;;;;;38.28;23.25;;;;;;;-1.04;75.07;101641.84;3500098;79;20992;-73
2021/12/22 10:54:16;;;;;;;40.30;24.63;;;;;;;-1.08;75.32;101633.45;3499036;79;21484;-75
2021/12/22 10:59:19;;;;;;;36.58;24.18;;;;;;;-1.06;75.33;101648.50;3538134;78;20941;-74
2021/12/22 11:04:19;;;;;;;37.95;23.87;;;;;;;-1.03;75.19;101645.80;3541509;78;20967;-74
2021/12/22 11:09:16;;;;;;;34.38;22.87;;;;;;;-1.02;75.33;101647.95;3498166;78;21131;-74
2021/12/22 11:14:16;;;;;;;36.35;22.65;;;;;;;-1.09;74.89;101638.03;3546451;78;21342;-74
2021/12/22 11:19:10;;;;;;;34.00;20.95;;;;;;;-1.08;74.94;101655.14;3515295;78;21404;-73
2021/12/22 11:24:02;;;;;;;31.60;20.43;;;;;;;-1.10;74.78;101646.48;3498176;78;20904;-72
2021/12/22 11:28:53;;;;;;;27.50;18.07;;;;;;;-1.07;75.02;101656.91;3525448;78;20990;-72
2021/12/22 11:33:47;;;;;;;26.15;17.02;;;;;;;-1.09;74.80;101658.45;3496263;78;21603;-73
2021/12/22 11:38:43;;;;;;;23.15;14.93;;;;;;;-1.15;74.75;101647.38;3572787;78;20952;-73
2021/12/22 11:43:43;;;;;;;27.80;19.05;;;;;;;-1.21;74.43;101646.52;3503347;78;20983;-73
2021/12/22 11:48:36;;;;;;;34.90;17.62;;;;;;;-1.21;74.93;101651.63;3521726;78;21536;-74
2021/12/22 11:53:52;;;;;;;24.63;16.57;;;;;;;-1.21;74.86;101649.07;3563412;78;20972;-77
2021/12/22 11:58:48;;;;;;;26.35;17.02;;;;;;;-1.16;74.54;101645.62;3524461;78;21456;-79
2021/12/22 12:03:44;;;;;;;30.02;18.42;;;;;;;-1.13;74.62;101646.23;3559677;78;21007;-73
2021/12/22 12:08:40;;;;;;;34.10;20.00;;;;;;;-1.23;74.52;101655.72;3562581;78;20931;-73
2021/12/22 12:25:06;;;;;;;34.20;21.90;;;;;;;-1.32;74.84;101646.06;3587341;78;21564;-73
2021/12/22 12:30:08;;;;;;;38.02;22.45;;;;;;;-1.37;74.79;101649.52;3535191;78;20932;-72
2021/12/22 12:35:23;;;;;;;38.38;24.02;;;;;;;-1.44;74.57;101642.53;3547282;78;21202;-73
2021/12/22 12:40:14;;;;;;;31.80;20.80;;;;;;;-1.45;74.87;101643.28;3540781;78;20955;-73
2021/12/22 12:45:11;;;;;;;37.35;20.77;;;;;;;-1.50;74.60;101635.64;3490372;78;26467;-73
2021/12/22 12:50:20;;;;;;;34.70;21.80;;;;;;;-1.54;74.74;101640.52;3534208;79;21006;-74
2021/12/22 12:55:15;;;;;;;31.82;20.25;;;;;;;-1.48;74.90;101652.88;3467164;79;20947;-72
2021/12/22 13:00:11;;;;;;;26.05;17.12;;;;;;;-1.51;74.73;101651.73;3546953;78;20954;-73
2021/12/22 13:05:12;;;;;;;33.88;21.02;;;;;;;-1.51;74.60;101658.11;3536170;78;21016;-78
2021/12/22 13:10:14;;;;;;;36.17;21.30;;;;;;;-1.59;74.73;101663.48;3512919;79;20991;-72
2021/12/22 13:20:35;;;;;;;38.28;21.73;;;;;;;-1.62;75.08;101664.50;3541393;79;20955;-76
2021/12/22 13:25:34;;;;;;;40.05;22.07;;;;;;;-1.64;75.09;101662.22;3531322;79;20963;-76
2021/12/22 13:30:30;;;;;;;37.35;22.42;;;;;;;-1.65;75.05;101659.54;3544772;78;20981;-77
2021/12/22 13:35:45;;;;;;;31.80;21.20;;;;;;;-1.72;75.09;101658.14;3504437;78;21575;-74
2021/12/22 13:40:48;;;;;;;30.90;20.50;;;;;;;-1.74;75.13;101663.11;3526833;78;20988;-73
2021/12/22 13:45:42;;;;;;;39.85;23.95;;;;;;;-1.81;75.12;101657.00;3581423;78;21033;-76
2021/12/22 13:50:34;;;;;;;33.95;21.97;;;;;;;-1.86;75.33;101658.67;3541577;78;21386;-72
2021/12/22 13:55:25;;;;;;;42.13;27.10;;;;;;;-1.92;75.22;101658.68;3450944;79;20908;-71
2021/12/22 14:00:20;;;;;;;39.40;24.90;;;;;;;-1.96;75.42;101666.84;3500953;78;20943;-74
2021/12/22 14:05:20;;;;;;;43.65;25.00;;;;;;;-1.95;75.65;101669.92;3483793;79;20968;-74
2021/12/22 14:10:15;;;;;;;40.90;25.32;;;;;;;-1.95;75.78;101663.91;3455864;78;21449;-74
2021/12/22 14:15:08;;;;;;;40.30;25.95;;;;;;;-1.97;75.67;101663.81;3521697;78;20959;-73
2021/12/22 14:20:05;;;;;;;47.17;27.35;;;;;;;-1.97;75.61;101670.18;3423551;79;21398;-73
2021/12/22 14:25:00;;;;;;;38.17;23.57;;;;;;;-2.00;75.69;101666.09;3533886;78;21429;-71
2021/12/22 14:29:53;;;;;;;48.33;28.15;;;;;;;-2.01;75.96;101668.13;3526414;78;22211;-81
2021/12/22 14:35:09;;;;;;;42.05;24.75;;;;;;;-2.00;76.09;101668.64;3480088;79;21430;-74
2021/12/22 14:40:00;;;;;;;40.33;23.80;;;;;;;-2.00;76.13;101672.47;3510023;79;20959;-72
2021/12/22 14:44:55;;;;;;;46.08;25.75;;;;;;;-2.04;76.02;101673.34;3436289;79;20992;-74
2021/12/22 14:49:48;;;;;;;42.62;24.47;;;;;;;-2.08;76.03;101671.32;3481157;79;20952;-74
2021/12/22 14:54:40;;;;;;;43.68;26.48;;;;;;;-2.16;76.18;101664.32;3528810;79;21262;-74
2021/12/22 14:59:34;;;;;;;42.98;26.55;;;;;;;-2.16;76.43;101674.52;3579636;78;20971;-74
2021/12/22 15:04:27;;;;;;;43.87;25.70;;;;;;;-2.16;76.30;101679.61;3468292;79;21026;-74
2021/12/22 15:09:18;;;;;;;41.28;24.20;;;;;;;-2.21;76.45;101682.16;3447725;79;20940;-73
2021/12/22 15:14:10;;;;;;;46.28;29.23;;;;;;;-2.26;76.27;101682.14;3531738;78;21191;-74
2021/12/22 15:19:02;;;;;;;52.15;30.27;;;;;;;-2.32;76.47;101674.88;3482275;79;21255;-73
2021/12/22 15:23:53;;;;;;;56.33;30.95;;;;;;;-2.34;76.58;101677.30;3439606;79;21030;-73
2021/12/22 15:28:48;;;;;;;52.62;30.60;;;;;;;-2.35;76.63;101669.13;3501227;78;20939;-72
2021/12/22 15:33:39;;;;;;;52.75;31.55;;;;;;;-2.35;76.73;101670.41;3518267;78;21508;-73
2021/12/22 15:38:30;;;;;;;53.42;31.62;;;;;;;-2.35;76.74;101672.95;3488851;78;22251;-79
2021/12/22 15:43:22;;;;;;;59.60;33.05;;;;;;;-2.34;76.86;101679.84;3484105;78;26813;-75
2021/12/22 15:48:15;;;;;;;55.25;33.08;;;;;;;-2.34;76.95;101674.75;3462097;79;21002;-71
2021/12/22 15:53:07;;;;;;;47.00;28.85;;;;;;;-2.36;76.93;101680.11;3493690;79;20936;-71
2021/12/22 15:58:01;;;;;;;37.25;22.98;;;;;;;-2.35;76.96;101673.34;3547852;79;20955;-70
2021/12/22 16:02:53;;;;;;;44.08;25.85;;;;;;;-2.35;76.91;101663.16;3475495;78;20971;-73
2021/12/22 16:07:44;;;;;;;40.78;23.32;;;;;;;-2.37;76.97;101674.48;3529296;79;21094;-72
2021/12/22 16:12:35;;;;;;;40.70;23.20;;;;;;;-2.39;76.92;101676.02;3546362;79;22019;-70
2021/12/22 16:17:26;;;;;;;36.20;21.52;;;;;;;-2.36;77.06;101673.73;3526104;78;20956;-70
2021/12/22 16:22:18;;;;;;;40.73;23.95;;;;;;;-2.37;77.00;101674.88;3534138;79;24210;-69
2021/12/22 16:27:09;;;;;;;35.63;20.90;;;;;;;-2.36;77.06;101676.28;3537639;79;21514;-70
2021/12/22 16:32:00;;;;;;;33.50;19.77;;;;;;;-2.32;77.12;101676.16;3536698;79;20962;-69
2021/12/22 16:36:51;;;;;;;32.30;19.32;;;;;;;-2.32;77.01;101677.05;3519468;79;20974;-71
2021/12/22 16:41:42;;;;;;;30.35;18.87;;;;;;;-2.30;77.09;101681.88;3539483;79;20920;-70
2021/12/22 16:46:33;;;;;;;37.30;20.50;;;;;;;-2.31;77.03;101676.66;3474645;79;21125;-70
2021/12/22 16:51:24;;;;;;;28.32;18.90;;;;;;;-2.31;76.83;101672.47;3480681;78;21010;-70
2021/12/22 16:56:19;;;;;;;35.15;19.52;;;;;;;-2.30;77.03;101686.09;3507736;79;21449;-70
2021/12/22 17:01:10;;;;;;;29.82;18.20;;;;;;;-2.27;77.04;101680.34;3496477;78;20908;-71
2021/12/22 17:06:01;;;;;;;30.92;17.85;;;;;;;-2.25;77.05;101673.72;3532290;79;20995;-70
2021/12/22 17:10:53;;;;;;;26.12;15.03;;;;;;;-2.25;77.06;101675.91;3527493;79;20955;-70
2021/12/22 17:15:45;;;;;;;26.60;16.73;;;;;;;-2.23;76.97;101669.67;3480781;78;21437;-69
2021/12/22 17:20:39;;;;;;;26.87;16.15;;;;;;;-2.25;76.82;101678.81;3486422;78;20990;-70
2021/12/22 17:25:30;;;;;;;27.73;16.55;;;;;;;-2.27;76.77;101677.80;3497110;78;20916;-69
2021/12/22 17:30:25;;;;;;;24.87;16.85;;;;;;;-2.28;76.77;101674.37;3466521;78;20919;-69
2021/12/22 17:35:18;;;;;;;27.77;17.15;;;;;;;-2.28;76.66;101670.94;3464867;78;20966;-70
2021/12/22 17:40:13;;;;;;;31.30;18.52;;;;;;;-2.28;76.56;101665.84;3495402;78;20963;-71
2021/12/22 17:45:07;;;;;;;28.57;18.98;;;;;;;-2.33;76.39;101668.88;3490607;79;21488;-70
2021/12/22 17:49:59;;;;;;;35.33;19.75;;;;;;;-2.37;76.17;101660.87;3485484;79;21035;-69
2021/12/22 17:54:50;;;;;;;33.83;19.02;;;;;;;-2.43;76.18;101671.44;3505940;78;21441;-69
2021/12/22 17:59:42;;;;;;;31.95;18.87;;;;;;;-2.44;76.22;101669.64;3500594;78;25051;-69
2021/12/22 18:04:35;;;;;;;33.30;18.80;;;;;;;-2.47;76.02;101668.09;3455497;78;20951;-69
2021/12/22 18:09:26;;;;;;;31.65;18.77;;;;;;;-2.54;75.97;101667.06;3502909;78;20930;-69
2021/12/22 18:14:17;;;;;;;33.98;20.10;;;;;;;-2.66;75.85;101667.30;3566146;78;20982;-69
2021/12/22 18:19:07;;;;;;;37.35;19.90;;;;;;;-2.74;76.06;101667.92;3500048;78;20989;-69
2021/12/22 18:23:58;;;;;;;32.08;18.57;;;;;;;-2.78;76.19;101671.86;3522447;78;22948;-70
2021/12/22 18:28:49;;;;;;;37.50;21.50;;;;;;;-2.90;75.95;101669.53;3483135;78;21528;-70
2021/12/22 18:33:43;;;;;;;39.63;22.65;;;;;;;-2.96;76.07;101672.84;3582680;78;21107;-69
2021/12/22 18:38:38;;;;;;;39.30;21.35;;;;;;;-3.05;76.04;101669.11;3535069;78;21514;-70
2021/12/22 18:43:28;;;;;;;38.02;19.82;;;;;;;-3.14;76.03;101660.69;3538943;79;20931;-69
2021/12/22 18:48:21;;;;;;;35.35;21.65;;;;;;;-3.33;76.17;101660.72;3517375;79;20936;-69
2021/12/22 18:53:15;;;;;;;36.88;19.55;;;;;;;-3.42;76.24;101659.91;3440994;78;21443;-69
2021/12/22 18:58:07;;;;;;;31.35;18.00;;;;;;;-3.56;76.31;101667.59;3550363;78;22554;-68
2021/12/22 19:02:58;;;;;;;32.80;19.30;;;;;;;-3.71;76.31;101659.50;3489692;78;20934;-69
2021/12/22 19:07:49;;;;;;;34.08;19.48;;;;;;;-3.82;76.37;101666.55;3563140;78;20971;-69
2021/12/22 19:12:40;;;;;;;32.28;20.52;;;;;;;-3.92;76.45;101660.63;3524492;78;24543;-69
2021/12/22 19:17:33;;;;;;;29.48;19.20;;;;;;;-4.02;76.48;101656.76;3526687;78;20945;-68
2021/12/22 19:22:24;;;;;;;47.27;25.02;;;;;;;-4.12;76.54;101655.02;3438627;78;20987;-68
2021/12/22 19:27:22;;;;;;;40.63;23.20;;;;;;;-4.22;76.75;101650.77;3496105;78;20992;-68
2021/12/22 19:32:15;;;;;;;;;;;;;;;-4.33;76.53;101653.95;3517271;78;20936;-68
2021/12/22 19:37:06;;;;;;;79.35;36.10;;;;;;;-4.47;76.64;101656.87;3491894;79;20133;-68
2021/12/22 19:41:58;;;;;;;71.45;35.50;;;;;;;-4.58;76.70;101655.00;3520419;79;21462;-69
2021/12/22 19:46:49;;;;;;;66.50;34.48;;;;;;;-4.70;76.50;101649.31;3465584;79;20905;-69
2021/12/22 19:51:40;;;;;;;70.97;34.92;;;;;;;-4.83;76.58;101650.17;3537519;79;20975;-69
2021/12/22 19:56:32;;;;;;;67.67;37.78;;;;;;;-4.95;76.55;101640.14;3492392;78;21519;-69
2021/12/22 20:01:23;;;;;;;66.67;33.73;;;;;;;-5.06;76.56;101650.20;3436706;78;20900;-69
2021/12/22 20:06:17;;;;;;;63.35;31.70;;;;;;;-5.15;76.71;101637.92;3474139;78;20943;-70
2021/12/22 20:11:09;;;;;;;57.67;33.40;;;;;;;-5.21;76.81;101637.33;3511624;78;21160;-68
2021/12/22 20:16:00;;;;;;;58.60;31.30;;;;;;;-5.30;76.32;101639.00;3529211;78;20998;-70
2021/12/22 20:20:51;;;;;;;60.48;31.35;;;;;;;-5.38;76.46;101637.89;3527719;78;22676;-69
2021/12/22 20:25:43;;;;;;;53.40;32.70;;;;;;;-5.44;76.57;101634.75;3528919;78;20971;-70
2021/12/22 20:30:36;;;;;;;66.90;36.10;;;;;;;-5.48;76.77;101638.14;3442022;78;20998;-70
2021/12/22 20:35:31;;;;;;;64.82;35.63;;;;;;;-5.49;76.82;101638.52;3459145;78;21459;-68
2021/12/22 20:40:25;;;;;;;68.50;35.13;;;;;;;-5.49;76.91;101632.19;3494349;78;20971;-69
2021/12/22 20:45:21;;;;;;;68.22;36.48;;;;;;;-5.42;77.09;101642.16;3483144;78;20982;-70
2021/12/22 20:50:09;;;;;;;62.15;33.85;;;;;;;-5.33;77.40;101627.29;3493734;78;20979;-69
2021/12/22 20:55:01;;;;;;;63.58;37.13;;;;;;;-5.20;77.40;101631.52;3532072;78;21421;-69
2021/12/22 20:59:52;;;;;;;62.98;35.13;;;;;;;-5.13;77.45;101626.28;3498536;78;21461;-69
2021/12/22 21:04:43;;;;;;;70.67;39.18;;;;;;;-5.02;77.62;101629.82;3439918;78;27805;-69
2021/12/22 21:09:33;;;;;;;77.75;42.48;;;;;;;-4.90;77.70;101617.38;3472132;78;20988;-69
2021/12/22 21:14:25;;;;;;;85.67;45.67;;;;;;;-4.84;77.73;101610.34;3460811;78;20967;-69
2021/12/22 21:19:16;;;;;;;82.33;45.50;;;;;;;-4.76;77.77;101603.05;3543764;78;21425;-70
2021/12/22 21:24:09;;;;;;;93.42;47.98;;;;;;;-4.70;77.78;101598.95;3492402;78;27502;-70
2021/12/22 21:29:00;;;;;;;88.75;49.38;;;;;;;-4.62;77.83;101602.67;3468071;79;21836;-70
2021/12/22 21:33:51;;;;;;;93.12;49.48;;;;;;;-4.57;77.88;101595.88;3490126;79;20916;-69
2021/12/22 21:38:43;;;;;;;82.17;44.53;;;;;;;-4.54;77.80;101593.25;3508934;79;37438;-69
2021/12/22 21:43:34;;;;;;;84.77;48.20;;;;;;;-4.51;77.71;101606.58;3436051;79;21355;-70
2021/12/22 21:48:25;;;;;;;98.90;49.03;;;;;;;-4.51;77.72;101604.92;3489317;79;21269;-69
2021/12/22 21:53:17;;;;;;;88.67;46.60;;;;;;;-4.50;77.68;101602.03;3504900;78;27666;-70
2021/12/22 21:58:08;;;;;;;91.17;47.55;;;;;;;-4.45;77.96;101609.70;3460581;78;20928;-69
2021/12/22 22:02:59;;;;;;;89.42;48.95;;;;;;;-4.44;77.82;101601.31;3469837;78;21717;-69
2021/12/22 22:07:51;;;;;;;97.37;47.38;;;;;;;-4.43;77.92;101594.22;3543984;78;21429;-69
2021/12/22 22:12:42;;;;;;;88.52;46.73;;;;;;;-4.41;77.97;101594.86;3511060;78;21014;-69
2021/12/22 22:17:33;;;;;;;96.85;50.85;;;;;;;-4.41;77.92;101596.52;3463230;78;20915;-69
2021/12/22 22:22:24;;;;;;;88.90;46.95;;;;;;;-4.42;78.00;101579.48;3544632;78;21006;-69
2021/12/22 22:27:16;;;;;;;89.90;47.03;;;;;;;-4.37;78.15;101568.49;3534763;78;20919;-70
2021/12/22 22:32:09;;;;;;;79.80;43.65;;;;;;;-4.34;78.13;101570.94;3490137;78;21500;-69
2021/12/22 22:37:00;;;;;;;88.92;44.25;;;;;;;-4.31;78.15;101569.03;3466789;78;22614;-69
2021/12/22 22:41:51;;;;;;;81.40;45.55;;;;;;;-4.31;78.00;101569.95;3499899;78;20987;-69
2021/12/22 22:46:42;;;;;;;77.67;44.48;;;;;;;-4.31;78.03;101568.68;3519344;78;20990;-69